createdAt,value
2018-09-06T00:01:48.746Z,25.21
2018-09-06T00:06:53.576Z,25.17
2018-09-06T00:11:57.372Z,25.14
2018-09-06T00:17:01.310Z,25.08
2018-09-06T00:22:06.943Z,25.00
2018-09-06T00:27:10.669Z,24.96
2018-09-06T00:32:15.002Z,24.90
2018-09-06T00:37:18.665Z,24.87
2018-09-06T00:42:22.350Z,24.81
2018-09-06T00:47:26.031Z,24.79
2018-09-06T00:52:30.539Z,24.74
2018-09-06T00:57:34.685Z,24.74
2018-09-06T01:02:41.011Z,24.69
2018-09-06T01:24:40.832Z,24.55
2018-09-06T01:29:45.273Z,24.52
2018-09-06T01:34:49.073Z,24.49
2018-09-06T01:39:52.751Z,24.45
2018-09-06T01:44:56.400Z,24.41
2018-09-06T01:50:04.817Z,24.37
2018-09-06T01:55:08.591Z,24.34
2018-09-06T02:00:12.313Z,24.33
2018-09-06T02:05:22.397Z,24.28
2018-09-06T02:10:26.118Z,24.25
2018-09-06T02:15:29.892Z,24.21
2018-09-06T02:20:34.558Z,24.06
2018-09-06T02:25:38.548Z,24.16
2018-09-06T02:30:43.131Z,24.15
2018-09-06T02:35:46.861Z,24.12
2018-09-06T02:40:50.552Z,24.10
2018-09-06T02:45:54.278Z,24.09
2018-09-06T02:51:03.131Z,24.07
2018-09-06T02:56:06.835Z,24.07
2018-09-06T03:01:10.963Z,24.04
2018-09-06T03:06:14.634Z,24.05
2018-09-06T03:11:25.467Z,24.03
2018-09-06T03:16:29.183Z,24.01
2018-09-06T03:21:32.835Z,24.02
2018-09-06T03:26:36.566Z,24.00
2018-09-06T03:31:40.259Z,23.98
2018-09-06T03:36:44.288Z,23.97
2018-09-06T03:41:48.703Z,23.96
2018-09-06T03:46:52.386Z,23.95
2018-09-06T03:51:57.112Z,23.93
2018-09-06T03:57:00.966Z,23.91
2018-09-06T04:02:04.797Z,23.89
2018-09-06T04:07:09.091Z,23.89
2018-09-06T04:12:12.863Z,23.87
2018-09-06T04:17:16.554Z,23.69
2018-09-06T04:22:20.357Z,23.45
2018-09-06T04:27:24.093Z,23.38
2018-09-06T04:32:28.093Z,23.32
2018-09-06T04:37:32.066Z,23.26
2018-09-06T04:42:37.013Z,23.26
2018-09-06T04:47:41.183Z,23.22
2018-09-06T04:52:46.416Z,23.19
2018-09-06T04:57:50.450Z,23.17
2018-09-06T05:02:54.432Z,23.15
2018-09-06T05:08:00.127Z,23.13
2018-09-06T05:13:10.151Z,23.12
2018-09-06T05:18:14.588Z,23.10
2018-09-06T05:23:18.636Z,23.11
2018-09-06T05:28:22.648Z,23.12
2018-09-06T05:33:27.180Z,23.09
2018-09-06T05:38:32.052Z,23.11
2018-09-06T05:43:35.806Z,23.10
2018-09-06T05:59:41.241Z,20.57
2018-09-06T06:04:44.954Z,20.56
2018-09-06T06:09:48.639Z,20.38
2018-09-06T06:14:52.298Z,20.38
2018-09-06T06:19:57.242Z,21.01
2018-09-06T06:25:04.572Z,21.83
2018-09-06T06:30:09.410Z,22.11
2018-09-06T06:35:13.165Z,22.29
2018-09-06T06:40:17.016Z,22.40
2018-09-06T06:45:21.280Z,22.50
2018-09-06T06:50:25.169Z,22.59
2018-09-06T06:55:28.827Z,22.65
2018-09-06T07:00:38.718Z,22.72
2018-09-06T07:05:43.691Z,22.77
2018-09-06T07:10:47.420Z,22.82
2018-09-06T07:15:51.794Z,22.87
2018-09-06T07:20:56.780Z,22.90
2018-09-06T07:26:00.433Z,22.93
2018-09-06T07:31:04.138Z,22.99
2018-09-06T07:36:07.725Z,23.03
2018-09-06T07:41:12.558Z,23.05
2018-09-06T07:46:16.267Z,23.08
2018-09-06T07:51:19.994Z,23.12
2018-09-06T07:56:23.821Z,23.15
2018-09-06T08:01:27.567Z,23.17
2018-09-06T08:06:31.414Z,23.20
2018-09-06T08:11:35.104Z,23.21
2018-09-06T08:16:38.763Z,23.24
2018-09-06T08:21:42.431Z,23.26
2018-09-06T08:26:46.126Z,23.29
2018-09-06T08:31:49.892Z,23.34
2018-09-06T08:36:53.638Z,23.35
2018-09-06T08:41:57.315Z,23.38
2018-09-06T08:47:01.020Z,23.41
2018-09-06T08:52:04.726Z,23.44
2018-09-06T08:57:08.377Z,23.47
2018-09-06T09:02:12.700Z,23.49
2018-09-06T09:07:16.455Z,23.53
2018-09-06T09:12:20.759Z,23.54
2018-09-06T09:17:24.426Z,23.58
2018-09-06T09:22:28.302Z,23.61
2018-09-06T09:27:32.004Z,23.63
2018-09-06T09:32:35.802Z,23.66
2018-09-06T09:37:39.520Z,23.67
2018-09-06T09:42:43.282Z,23.70
2018-09-06T09:47:47.019Z,23.70
2018-09-06T09:52:51.850Z,23.69
2018-09-06T09:57:55.611Z,23.72
2018-09-06T10:03:04.302Z,23.75
2018-09-06T10:08:13.326Z,23.76
2018-09-06T10:13:17.182Z,23.79
2018-09-06T10:18:20.989Z,23.82
2018-09-06T10:23:24.706Z,23.83
2018-09-06T10:28:28.472Z,23.83
2018-09-06T10:33:32.812Z,23.82
2018-09-06T10:38:36.615Z,23.86
2018-09-06T10:43:40.367Z,23.90
2018-09-06T10:48:44.806Z,23.94
2018-09-06T10:59:17.300Z,23.98
2018-09-06T11:04:21.196Z,24.02
2018-09-06T11:14:51.403Z,24.90
2018-09-06T11:19:55.072Z,24.14
2018-09-06T11:24:58.795Z,24.05
2018-09-06T11:30:07.398Z,24.13
2018-09-06T11:35:11.218Z,24.14
2018-09-06T11:40:15.087Z,24.15
2018-09-06T11:45:18.790Z,24.16
2018-09-06T11:50:22.573Z,24.19
2018-09-06T11:55:26.298Z,24.22
2018-09-06T12:00:30.413Z,24.24
2018-09-06T12:05:34.902Z,24.27
2018-09-06T12:10:38.700Z,24.31
2018-09-06T12:15:42.505Z,24.31
2018-09-06T12:20:46.988Z,24.36
2018-09-06T12:25:50.874Z,24.39
2018-09-06T12:30:54.588Z,24.42
2018-09-06T12:35:58.936Z,24.44
2018-09-06T12:41:02.830Z,24.46
2018-09-06T12:46:07.276Z,24.48
2018-09-06T12:51:12.178Z,24.49
2018-09-06T12:56:16.058Z,24.52
2018-09-06T13:01:19.904Z,24.54
2018-09-06T13:06:23.606Z,24.56
2018-09-06T13:11:27.447Z,24.58
2018-09-06T13:16:34.269Z,24.59
2018-09-06T13:21:38.094Z,24.57
2018-09-06T13:26:43.512Z,24.58
2018-09-06T13:31:47.963Z,24.54
2018-09-06T13:36:51.718Z,24.60
2018-09-06T13:41:55.586Z,24.61
2018-09-06T13:47:00.423Z,24.58
2018-09-06T13:52:04.265Z,24.57
2018-09-06T13:57:08.022Z,24.58
2018-09-06T14:02:12.448Z,24.57
2018-09-06T14:07:16.366Z,24.56
2018-09-06T14:12:20.881Z,24.57
2018-09-06T14:17:25.722Z,24.56
2018-09-06T14:22:30.137Z,24.55
2018-09-06T14:27:34.026Z,24.53
2018-09-06T14:32:38.449Z,24.55
2018-09-06T14:37:42.625Z,24.55
2018-09-06T14:42:46.579Z,24.53
2018-09-06T14:47:50.287Z,24.57
2018-09-06T14:52:53.989Z,24.56
2018-09-06T14:57:57.924Z,24.61
2018-09-06T15:03:01.824Z,24.61
2018-09-06T15:08:05.794Z,24.57
2018-09-06T15:13:09.633Z,24.57
2018-09-06T15:18:13.390Z,24.60
2018-09-06T15:23:18.528Z,24.61
2018-09-06T15:28:23.277Z,24.66
2018-09-06T15:33:27.048Z,24.71
2018-09-06T15:38:30.876Z,24.74
2018-09-06T15:43:34.759Z,24.82
2018-09-06T15:48:38.712Z,24.92
2018-09-06T15:53:42.504Z,24.96
2018-09-06T15:58:46.283Z,24.99
2018-09-06T16:03:50.290Z,25.03
2018-09-06T16:08:54.739Z,25.01
2018-09-06T16:13:58.526Z,24.98
2018-09-06T16:19:02.301Z,24.97
2018-09-06T16:24:06.900Z,25.01
2018-09-06T16:29:10.820Z,24.95
2018-09-06T16:34:14.620Z,24.89
2018-09-06T16:39:18.418Z,24.84
2018-09-06T16:44:32.278Z,24.81
2018-09-06T16:49:37.079Z,24.79
2018-09-06T16:54:41.028Z,24.79
2018-09-06T16:59:44.975Z,24.81
2018-09-06T17:04:49.013Z,24.79
2018-09-06T17:09:52.915Z,24.77
2018-09-06T17:14:57.079Z,24.80
2018-09-06T17:20:06.444Z,24.77
2018-09-06T17:25:10.609Z,24.80
2018-09-06T17:30:14.451Z,24.80
2018-09-06T17:35:19.476Z,24.80
2018-09-06T17:40:23.287Z,24.86
2018-09-06T17:51:00.457Z,25.57
2018-09-06T17:56:05.333Z,24.87
2018-09-06T18:01:17.035Z,24.82
2018-09-06T18:06:20.858Z,24.81
2018-09-06T18:11:32.235Z,24.77
2018-09-06T18:16:36.103Z,24.79
2018-09-06T18:21:39.876Z,24.81
2018-09-06T18:26:43.662Z,24.82
2018-09-06T18:31:47.377Z,24.83
2018-09-06T18:36:51.133Z,24.81
2018-09-06T18:41:54.958Z,24.83
2018-09-06T18:46:58.742Z,24.81
2018-09-06T18:52:02.578Z,24.86
2018-09-06T18:57:06.688Z,24.85
2018-09-06T19:02:10.573Z,24.83
2018-09-06T19:07:14.445Z,24.85
2018-09-06T19:12:18.369Z,24.86
2018-09-06T19:17:22.175Z,24.86
2018-09-06T19:22:25.933Z,24.88
2018-09-06T19:27:29.984Z,24.90
2018-09-06T19:32:33.771Z,24.89
2018-09-06T19:37:37.595Z,24.94
2018-09-06T19:42:41.395Z,24.90
2018-09-06T19:47:45.248Z,24.89
2018-09-06T19:52:49.038Z,24.90
2018-09-06T19:57:53.469Z,24.94
2018-09-06T20:02:57.437Z,24.97
2018-09-06T20:08:01.359Z,24.93
2018-09-06T20:13:05.154Z,24.94
2018-09-06T20:18:08.965Z,24.92
2018-09-06T20:23:12.731Z,24.96
2018-09-06T20:28:16.581Z,24.94
2018-09-06T20:33:20.408Z,24.95
2018-09-06T20:38:24.222Z,24.96
2018-09-06T20:43:28.065Z,24.97
2018-09-06T20:48:31.833Z,24.96
2018-09-06T20:53:35.676Z,24.95
2018-09-06T20:58:39.458Z,25.00
2018-09-06T21:03:43.705Z,24.99
2018-09-06T21:08:47.951Z,24.97
2018-09-06T21:13:52.324Z,24.95
2018-09-06T21:18:56.288Z,24.96
2018-09-06T21:24:00.139Z,24.96
2018-09-06T21:29:04.031Z,25.01
2018-09-06T21:34:07.973Z,25.01
2018-09-06T21:39:13.438Z,25.00
2018-09-06T21:44:17.463Z,25.01
2018-09-06T21:49:21.496Z,25.02
2018-09-06T21:54:25.297Z,25.06
2018-09-06T21:59:29.116Z,25.20
2018-09-06T22:04:33.970Z,25.24
2018-09-06T22:09:37.779Z,25.25
2018-09-06T22:14:41.687Z,25.28
2018-09-06T22:19:46.433Z,25.28
2018-09-06T22:24:50.424Z,25.30
2018-09-06T22:29:54.693Z,25.32
2018-09-06T22:34:58.626Z,25.35
2018-09-06T22:40:08.121Z,25.38
2018-09-06T22:45:12.083Z,25.36
2018-09-06T22:50:16.135Z,25.40
2018-09-06T22:55:20.375Z,25.38
2018-09-06T23:00:24.263Z,25.40
2018-09-06T23:05:28.114Z,25.42
2018-09-06T23:10:32.751Z,25.44
2018-09-06T23:15:37.214Z,25.45
2018-09-06T23:20:41.164Z,25.46
2018-09-06T23:25:45.757Z,25.42
2018-09-06T23:30:49.512Z,25.42
2018-09-06T23:35:53.341Z,25.44
2018-09-06T23:40:58.046Z,25.42
2018-09-06T23:46:01.783Z,25.39
2018-09-06T23:51:05.575Z,25.37
2018-09-06T23:56:09.369Z,25.27
